sensor_id;sensor_type;location;lat;lon;timestamp;pressure;altitude;pressure_sealevel;temperature;humidity
13348;BME280;6743;49.934;9.138;2024-03-02T00:01:51;99329.56;;;5.63;100.00
13348;BME280;6743;49.934;9.138;2024-03-02T00:04:17;99328.38;;;5.58;100.00
13348;BME280;6743;49.934;9.138;2024-03-02T00:06:43;99324.72;;;5.50;100.00
13348;BME280;6743;49.934;9.138;2024-03-02T00:09:10;99313.84;;;5.45;100.00
13348;BME280;6743;49.934;9.138;2024-03-02T00:11:37;99324.81;;;5.41;100.00
13348;BME280;6743;49.934;9.138;2024-03-02T00:14:04;99329.03;;;5.34;100.00
13348;BME280;6743;49.934;9.138;2024-03-02T00:16:30;99330.50;;;5.28;100.00
13348;BME280;6743;49.934;9.138;2024-03-02T00:19:01;99325.69;;;5.24;100.00
13348;BME280;6743;49.934;9.138;2024-03-02T00:21:27;99326.69;;;5.23;100.00
13348;BME280;6743;49.934;9.138;2024-03-02T00:23:55;99327.16;;;5.18;100.00
13348;BME280;6743;49.934;9.138;2024-03-02T00:26:22;99324.97;;;5.13;100.00
13348;BME280;6743;49.934;9.138;2024-03-02T00:28:48;99324.97;;;5.13;100.00
13348;BME280;6743;49.934;9.138;2024-03-02T00:31:16;99317.22;;;5.12;100.00
13348;BME280;6743;49.934;9.138;2024-03-02T00:33:46;99325.09;;;5.12;100.00
13348;BME280;6743;49.934;9.138;2024-03-02T00:36:14;99328.19;;;5.07;100.00
13348;BME280;6743;49.934;9.138;2024-03-02T00:38:44;99318.00;;;5.04;100.00
13348;BME280;6743;49.934;9.138;2024-03-02T00:41:15;99326.03;;;5.03;100.00
13348;BME280;6743;49.934;9.138;2024-03-02T00:43:45;99319.88;;;4.94;100.00
13348;BME280;6743;49.934;9.138;2024-03-02T00:46:12;99327.63;;;4.96;100.00
13348;BME280;6743;49.934;9.138;2024-03-02T00:48:39;99329.56;;;4.94;100.00
13348;BME280;6743;49.934;9.138;2024-03-02T00:51:05;99329.72;;;4.92;100.00
13348;BME280;6743;49.934;9.138;2024-03-02T00:53:32;99332.34;;;4.92;100.00
13348;BME280;6743;49.934;9.138;2024-03-02T00:55:58;99328.06;;;4.91;100.00
13348;BME280;6743;49.934;9.138;2024-03-02T00:58:25;99329.19;;;4.89;100.00
13348;BME280;6743;49.934;9.138;2024-03-02T01:00:51;99325.44;;;4.91;100.00
13348;BME280;6743;49.934;9.138;2024-03-02T01:03:17;99323.34;;;4.95;100.00
13348;BME280;6743;49.934;9.138;2024-03-02T01:05:45;99324.03;;;4.97;100.00
13348;BME280;6743;49.934;9.138;2024-03-02T01:08:11;99323.69;;;5.00;100.00
13348;BME280;6743;49.934;9.138;2024-03-02T01:10:40;99325.34;;;5.01;100.00
13348;BME280;6743;49.934;9.138;2024-03-02T01:13:06;99316.34;;;5.03;100.00
13348;BME280;6743;49.934;9.138;2024-03-02T01:15:33;99321.13;;;5.08;100.00
13348;BME280;6743;49.934;9.138;2024-03-02T01:17:59;99320.66;;;5.12;100.00
13348;BME280;6743;49.934;9.138;2024-03-02T01:20:25;99305.91;;;5.11;100.00
13348;BME280;6743;49.934;9.138;2024-03-02T01:22:52;99312.19;;;5.19;100.00
13348;BME280;6743;49.934;9.138;2024-03-02T01:25:18;99312.56;;;5.24;100.00
13348;BME280;6743;49.934;9.138;2024-03-02T01:27:44;99303.50;;;5.26;100.00
13348;BME280;6743;49.934;9.138;2024-03-02T01:30:11;99298.09;;;5.28;100.00
13348;BME280;6743;49.934;9.138;2024-03-02T01:32:37;99293.69;;;5.28;100.00
13348;BME280;6743;49.934;9.138;2024-03-02T01:35:05;99293.69;;;5.28;100.00
13348;BME280;6743;49.934;9.138;2024-03-02T01:37:32;99288.56;;;5.27;100.00
13348;BME280;6743;49.934;9.138;2024-03-02T01:39:58;99291.38;;;5.25;100.00
13348;BME280;6743;49.934;9.138;2024-03-02T01:42:24;99289.88;;;5.23;100.00
13348;BME280;6743;49.934;9.138;2024-03-02T01:44:50;99294.78;;;5.18;100.00
13348;BME280;6743;49.934;9.138;2024-03-02T01:47:16;99298.66;;;5.13;100.00
13348;BME280;6743;49.934;9.138;2024-03-02T01:49:42;99299.97;;;5.09;100.00
13348;BME280;6743;49.934;9.138;2024-03-02T01:52:09;99294.16;;;5.06;100.00
13348;BME280;6743;49.934;9.138;2024-03-02T01:54:36;99299.22;;;4.99;100.00
13348;BME280;6743;49.934;9.138;2024-03-02T01:57:02;99296.38;;;4.93;100.00
13348;BME280;6743;49.934;9.138;2024-03-02T01:59:28;99304.19;;;4.85;100.00
13348;BME280;6743;49.934;9.138;2024-03-02T02:01:58;99283.03;;;4.68;100.00
13348;BME280;6743;49.934;9.138;2024-03-02T02:04:24;99301.66;;;4.75;100.00
13348;BME280;6743;49.934;9.138;2024-03-02T02:06:53;99302.91;;;4.71;100.00
13348;BME280;6743;49.934;9.138;2024-03-02T02:09:20;99297.28;;;4.66;100.00
13348;BME280;6743;49.934;9.138;2024-03-02T02:11:46;99296.09;;;4.60;100.00
13348;BME280;6743;49.934;9.138;2024-03-02T02:14:12;99292.78;;;4.58;100.00
13348;BME280;6743;49.934;9.138;2024-03-02T02:16:38;99288.50;;;4.57;100.00
13348;BME280;6743;49.934;9.138;2024-03-02T02:19:04;99287.53;;;4.58;100.00
13348;BME280;6743;49.934;9.138;2024-03-02T02:21:31;99286.28;;;4.62;100.00
13348;BME280;6743;49.934;9.138;2024-03-02T02:23:57;99280.03;;;4.63;100.00
13348;BME280;6743;49.934;9.138;2024-03-02T02:26:23;99261.87;;;4.52;100.00
13348;BME280;6743;49.934;9.138;2024-03-02T02:28:50;99266.84;;;4.55;100.00
13348;BME280;6743;49.934;9.138;2024-03-02T02:31:16;99281.69;;;4.64;100.00
13348;BME280;6743;49.934;9.138;2024-03-02T02:33:42;99278.91;;;4.66;100.00
13348;BME280;6743;49.934;9.138;2024-03-02T02:36:08;99267.56;;;4.65;100.00
13348;BME280;6743;49.934;9.138;2024-03-02T02:38:40;99269.09;;;4.68;100.00
13348;BME280;6743;49.934;9.138;2024-03-02T02:41:08;99266.12;;;4.71;100.00
13348;BME280;6743;49.934;9.138;2024-03-02T02:43:34;99255.63;;;4.71;100.00
13348;BME280;6743;49.934;9.138;2024-03-02T02:46:00;99260.59;;;4.74;100.00
13348;BME280;6743;49.934;9.138;2024-03-02T02:48:26;99259.47;;;4.77;100.00
13348;BME280;6743;49.934;9.138;2024-03-02T02:50:53;99249.13;;;4.75;100.00
13348;BME280;6743;49.934;9.138;2024-03-02T02:53:18;99249.78;;;4.77;100.00
13348;BME280;6743;49.934;9.138;2024-03-02T02:55:45;99249.62;;;4.79;100.00
13348;BME280;6743;49.934;9.138;2024-03-02T02:58:11;99246.84;;;4.80;100.00
13348;BME280;6743;49.934;9.138;2024-03-02T03:00:37;99252.25;;;4.79;100.00
13348;BME280;6743;49.934;9.138;2024-03-02T03:03:03;99243.53;;;4.78;100.00
13348;BME280;6743;49.934;9.138;2024-03-02T03:05:29;99242.56;;;4.79;100.00
13348;BME280;6743;49.934;9.138;2024-03-02T03:07:55;99241.09;;;4.77;100.00
13348;BME280;6743;49.934;9.138;2024-03-02T03:10:21;99248.13;;;4.76;100.00
13348;BME280;6743;49.934;9.138;2024-03-02T03:12:49;99244.00;;;4.73;100.00
13348;BME280;6743;49.934;9.138;2024-03-02T03:15:15;99247.59;;;4.72;100.00
13348;BME280;6743;49.934;9.138;2024-03-02T03:17:42;99243.50;;;4.70;100.00
13348;BME280;6743;49.934;9.138;2024-03-02T03:20:08;99246.41;;;4.67;100.00
13348;BME280;6743;49.934;9.138;2024-03-02T03:22:35;99254.44;;;4.65;100.00
13348;BME280;6743;49.934;9.138;2024-03-02T03:25:01;99242.28;;;4.64;100.00
13348;BME280;6743;49.934;9.138;2024-03-02T03:27:27;99239.81;;;4.63;100.00
13348;BME280;6743;49.934;9.138;2024-03-02T03:29:54;99244.41;;;4.61;100.00
13348;BME280;6743;49.934;9.138;2024-03-02T03:32:20;99248.00;;;4.60;100.00
13348;BME280;6743;49.934;9.138;2024-03-02T03:34:46;99250.91;;;4.57;100.00
13348;BME280;6743;49.934;9.138;2024-03-02T03:37:13;99252.06;;;4.54;100.00
13348;BME280;6743;49.934;9.138;2024-03-02T03:39:39;99260.38;;;4.50;100.00
13348;BME280;6743;49.934;9.138;2024-03-02T03:42:05;99264.28;;;4.46;100.00
13348;BME280;6743;49.934;9.138;2024-03-02T03:44:31;99257.69;;;4.42;100.00
13348;BME280;6743;49.934;9.138;2024-03-02T03:46:58;99247.47;;;4.39;100.00
13348;BME280;6743;49.934;9.138;2024-03-02T03:49:24;99230.31;;;4.26;100.00
13348;BME280;6743;49.934;9.138;2024-03-02T03:51:50;99241.84;;;4.33;100.00
13348;BME280;6743;49.934;9.138;2024-03-02T03:54:16;99251.91;;;4.38;100.00
13348;BME280;6743;49.934;9.138;2024-03-02T03:56:42;99250.25;;;4.37;100.00
13348;BME280;6743;49.934;9.138;2024-03-02T03:59:08;99246.97;;;4.35;100.00
13348;BME280;6743;49.934;9.138;2024-03-02T04:01:34;99246.28;;;4.33;100.00
13348;BME280;6743;49.934;9.138;2024-03-02T04:04:01;99240.81;;;4.26;100.00
13348;BME280;6743;49.934;9.138;2024-03-02T04:06:29;99249.66;;;4.25;100.00
13348;BME280;6743;49.934;9.138;2024-03-02T04:08:55;99249.09;;;4.22;100.00
13348;BME280;6743;49.934;9.138;2024-03-02T04:11:21;99253.97;;;4.17;100.00
13348;BME280;6743;49.934;9.138;2024-03-02T04:13:47;99252.63;;;4.13;100.00
13348;BME280;6743;49.934;9.138;2024-03-02T04:16:13;99253.75;;;4.10;100.00
13348;BME280;6743;49.934;9.138;2024-03-02T04:18:39;99247.28;;;4.05;100.00
13348;BME280;6743;49.934;9.138;2024-03-02T04:21:05;99252.00;;;4.01;100.00
13348;BME280;6743;49.934;9.138;2024-03-02T04:23:31;99245.28;;;3.99;100.00
13348;BME280;6743;49.934;9.138;2024-03-02T04:25:57;99250.12;;;3.93;100.00
13348;BME280;6743;49.934;9.138;2024-03-02T04:28:23;99243.38;;;3.91;100.00
13348;BME280;6743;49.934;9.138;2024-03-02T04:30:49;99244.50;;;3.88;100.00
13348;BME280;6743;49.934;9.138;2024-03-02T04:33:15;99248.06;;;3.87;100.00
13348;BME280;6743;49.934;9.138;2024-03-02T04:35:41;99246.72;;;3.83;100.00
13348;BME280;6743;49.934;9.138;2024-03-02T04:38:08;99251.28;;;3.81;100.00
13348;BME280;6743;49.934;9.138;2024-03-02T04:40:34;99249.94;;;3.77;100.00
13348;BME280;6743;49.934;9.138;2024-03-02T04:43:00;99245.44;;;3.70;100.00
13348;BME280;6743;49.934;9.138;2024-03-02T04:45:26;99247.78;;;3.73;100.00
13348;BME280;6743;49.934;9.138;2024-03-02T04:47:52;99247.91;;;3.71;100.00
13348;BME280;6743;49.934;9.138;2024-03-02T04:50:18;99250.81;;;3.68;100.00
13348;BME280;6743;49.934;9.138;2024-03-02T04:52:44;99240.06;;;3.62;100.00
13348;BME280;6743;49.934;9.138;2024-03-02T04:55:11;99244.06;;;3.66;100.00
13348;BME280;6743;49.934;9.138;2024-03-02T04:57:50;99243.53;;;3.62;100.00
13348;BME280;6743;49.934;9.138;2024-03-02T05:00:16;99246.28;;;3.61;100.00
13348;BME280;6743;49.934;9.138;2024-03-02T05:02:42;99239.09;;;3.63;100.00
13348;BME280;6743;49.934;9.138;2024-03-02T05:05:08;99244.34;;;3.63;100.00
13348;BME280;6743;49.934;9.138;2024-03-02T05:07:34;99247.66;;;3.65;100.00
13348;BME280;6743;49.934;9.138;2024-03-02T05:10:00;99250.16;;;3.66;100.00
13348;BME280;6743;49.934;9.138;2024-03-02T05:12:27;99256.06;;;3.68;100.00
13348;BME280;6743;49.934;9.138;2024-03-02T05:15:18;99254.94;;;3.71;100.00
13348;BME280;6743;49.934;9.138;2024-03-02T05:17:44;99258.41;;;3.71;100.00
13348;BME280;6743;49.934;9.138;2024-03-02T05:20:10;99253.16;;;3.71;100.00
13348;BME280;6743;49.934;9.138;2024-03-02T05:22:37;99255.47;;;3.74;100.00
13348;BME280;6743;49.934;9.138;2024-03-02T05:25:06;99259.59;;;3.77;100.00
13348;BME280;6743;49.934;9.138;2024-03-02T05:27:33;99262.09;;;3.78;100.00
13348;BME280;6743;49.934;9.138;2024-03-02T05:29:59;99264.25;;;3.83;100.00
13348;BME280;6743;49.934;9.138;2024-03-02T05:32:25;99267.44;;;3.86;100.00
13348;BME280;6743;49.934;9.138;2024-03-02T05:34:51;99261.75;;;3.91;100.00
13348;BME280;6743;49.934;9.138;2024-03-02T05:37:18;99248.34;;;3.94;100.00
13348;BME280;6743;49.934;9.138;2024-03-02T05:39:44;99258.84;;;3.94;100.00
13348;BME280;6743;49.934;9.138;2024-03-02T05:42:10;99265.94;;;4.02;100.00
13348;BME280;6743;49.934;9.138;2024-03-02T05:44:36;99262.50;;;4.01;100.00
13348;BME280;6743;49.934;9.138;2024-03-02T05:47:03;99252.06;;;3.91;100.00
13348;BME280;6743;49.934;9.138;2024-03-02T05:49:29;99265.72;;;3.95;100.00
13348;BME280;6743;49.934;9.138;2024-03-02T05:51:55;99259.25;;;3.89;100.00
13348;BME280;6743;49.934;9.138;2024-03-02T05:54:21;99269.75;;;3.89;100.00
13348;BME280;6743;49.934;9.138;2024-03-02T05:56:47;99283.19;;;3.86;100.00
13348;BME280;6743;49.934;9.138;2024-03-02T05:59:13;99280.84;;;3.83;100.00
13348;BME280;6743;49.934;9.138;2024-03-02T06:01:40;99284.56;;;3.81;100.00
13348;BME280;6743;49.934;9.138;2024-03-02T06:04:06;99290.13;;;3.78;100.00
13348;BME280;6743;49.934;9.138;2024-03-02T06:06:32;99295.50;;;3.76;100.00
13348;BME280;6743;49.934;9.138;2024-03-02T06:08:59;99295.81;;;3.73;100.00
13348;BME280;6743;49.934;9.138;2024-03-02T06:11:25;99299.41;;;3.72;100.00
13348;BME280;6743;49.934;9.138;2024-03-02T06:13:51;99307.25;;;3.72;100.00
13348;BME280;6743;49.934;9.138;2024-03-02T06:16:17;99311.53;;;3.73;100.00
13348;BME280;6743;49.934;9.138;2024-03-02T06:18:43;99311.38;;;3.75;100.00
13348;BME280;6743;49.934;9.138;2024-03-02T06:21:11;99319.25;;;3.75;100.00
13348;BME280;6743;49.934;9.138;2024-03-02T06:23:37;99314.00;;;3.75;100.00
13348;BME280;6743;49.934;9.138;2024-03-02T06:26:03;99320.06;;;3.75;100.00
13348;BME280;6743;49.934;9.138;2024-03-02T06:28:29;99322.56;;;3.77;100.00
13348;BME280;6743;49.934;9.138;2024-03-02T06:30:55;99325.88;;;3.79;100.00
13348;BME280;6743;49.934;9.138;2024-03-02T06:33:21;99324.22;;;3.78;100.00
13348;BME280;6743;49.934;9.138;2024-03-02T06:35:48;99324.22;;;3.78;100.00
13348;BME280;6743;49.934;9.138;2024-03-02T06:38:14;99333.88;;;3.77;100.00
13348;BME280;6743;49.934;9.138;2024-03-02T06:40:40;99323.41;;;3.77;100.00
13348;BME280;6743;49.934;9.138;2024-03-02T06:43:06;99330.69;;;3.83;100.00
13348;BME280;6743;49.934;9.138;2024-03-02T06:45:32;99326.41;;;3.82;100.00
13348;BME280;6743;49.934;9.138;2024-03-02T06:48:00;99319.22;;;3.84;100.00
13348;BME280;6743;49.934;9.138;2024-03-02T06:50:26;99320.06;;;3.85;100.00
13348;BME280;6743;49.934;9.138;2024-03-02T06:52:52;99323.37;;;3.87;100.00
13348;BME280;6743;49.934;9.138;2024-03-02T06:55:19;99320.75;;;3.87;100.00
13348;BME280;6743;49.934;9.138;2024-03-02T06:57:44;99321.72;;;3.86;100.00
13348;BME280;6743;49.934;9.138;2024-03-02T07:00:11;99316.28;;;3.87;100.00
13348;BME280;6743;49.934;9.138;2024-03-02T07:02:38;99312.69;;;3.88;100.00
13348;BME280;6743;49.934;9.138;2024-03-02T07:05:06;99310.91;;;3.89;100.00
13348;BME280;6743;49.934;9.138;2024-03-02T07:07:33;99314.22;;;3.91;100.00
13348;BME280;6743;49.934;9.138;2024-03-02T07:10:01;99313.13;;;3.93;100.00
13348;BME280;6743;49.934;9.138;2024-03-02T07:12:27;99321.50;;;3.97;100.00
13348;BME280;6743;49.934;9.138;2024-03-02T07:14:52;99320.22;;;4.01;100.00
13348;BME280;6743;49.934;9.138;2024-03-02T07:17:49;99313.34;;;4.00;100.00
13348;BME280;6743;49.934;9.138;2024-03-02T07:20:15;99306.69;;;4.06;100.00
13348;BME280;6743;49.934;9.138;2024-03-02T07:22:41;99315.78;;;4.11;100.00
13348;BME280;6743;49.934;9.138;2024-03-02T07:25:08;99333.03;;;4.14;100.00
13348;BME280;6743;49.934;9.138;2024-03-02T07:27:34;99326.00;;;4.14;100.00
13348;BME280;6743;49.934;9.138;2024-03-02T07:30:01;99330.66;;;4.20;100.00
13348;BME280;6743;49.934;9.138;2024-03-02T07:32:27;99332.13;;;4.23;100.00
13348;BME280;6743;49.934;9.138;2024-03-02T07:34:53;99335.31;;;4.26;100.00
13348;BME280;6743;49.934;9.138;2024-03-02T07:37:19;99337.47;;;4.31;100.00
13348;BME280;6743;49.934;9.138;2024-03-02T07:39:45;99339.97;;;4.32;100.00
13348;BME280;6743;49.934;9.138;2024-03-02T07:42:12;99336.88;;;4.37;100.00
13348;BME280;6743;49.934;9.138;2024-03-02T07:44:38;99331.34;;;4.40;100.00
13348;BME280;6743;49.934;9.138;2024-03-02T07:47:04;99334.34;;;4.45;100.00
13348;BME280;6743;49.934;9.138;2024-03-02T07:49:30;99331.59;;;4.47;100.00
13348;BME280;6743;49.934;9.138;2024-03-02T07:51:56;99329.34;;;4.52;100.00
13348;BME280;6743;49.934;9.138;2024-03-02T07:54:22;99333.34;;;4.56;100.00
13348;BME280;6743;49.934;9.138;2024-03-02T07:56:48;99333.00;;;4.59;100.00
13348;BME280;6743;49.934;9.138;2024-03-02T07:59:15;99335.03;;;4.65;100.00
13348;BME280;6743;49.934;9.138;2024-03-02T08:01:41;99334.75;;;4.68;100.00
13348;BME280;6743;49.934;9.138;2024-03-02T08:04:07;99334.28;;;4.72;100.00
13348;BME280;6743;49.934;9.138;2024-03-02T08:06:33;99334.84;;;4.76;100.00
13348;BME280;6743;49.934;9.138;2024-03-02T08:09:00;99334.38;;;4.81;100.00
13348;BME280;6743;49.934;9.138;2024-03-02T08:11:26;99336.53;;;4.85;100.00
13348;BME280;6743;49.934;9.138;2024-03-02T08:13:53;99327.59;;;4.78;100.00
13348;BME280;6743;49.934;9.138;2024-03-02T08:16:21;99344.50;;;4.93;100.00
13348;BME280;6743;49.934;9.138;2024-03-02T08:18:49;99352.94;;;4.97;100.00
13348;BME280;6743;49.934;9.138;2024-03-02T08:21:15;99349.16;;;4.99;100.00
13348;BME280;6743;49.934;9.138;2024-03-02T08:23:42;99343.59;;;5.02;100.00
13348;BME280;6743;49.934;9.138;2024-03-02T08:26:08;99351.34;;;5.04;100.00
13348;BME280;6743;49.934;9.138;2024-03-02T08:28:34;99338.63;;;4.99;100.00
13348;BME280;6743;49.934;9.138;2024-03-02T08:31:02;99326.66;;;4.97;100.00
13348;BME280;6743;49.934;9.138;2024-03-02T08:33:29;99343.50;;;5.12;100.00
13348;BME280;6743;49.934;9.138;2024-03-02T08:35:55;99345.69;;;5.17;100.00
13348;BME280;6743;49.934;9.138;2024-03-02T08:38:21;99347.19;;;5.19;100.00
13348;BME280;6743;49.934;9.138;2024-03-02T08:40:49;99348.53;;;5.23;100.00
13348;BME280;6743;49.934;9.138;2024-03-02T08:43:15;99348.06;;;5.28;100.00
13348;BME280;6743;49.934;9.138;2024-03-02T08:45:42;99361.44;;;5.34;100.00
13348;BME280;6743;49.934;9.138;2024-03-02T08:48:10;99362.63;;;5.40;100.00
13348;BME280;6743;49.934;9.138;2024-03-02T08:50:37;99364.81;;;5.44;100.00
13348;BME280;6743;49.934;9.138;2024-03-02T08:53:03;99364.34;;;5.49;100.00
13348;BME280;6743;49.934;9.138;2024-03-02T08:55:29;99364.69;;;5.54;100.00
13348;BME280;6743;49.934;9.138;2024-03-02T08:57:55;99364.06;;;5.60;100.00
13348;BME280;6743;49.934;9.138;2024-03-02T09:00:21;99366.75;;;5.68;100.00
13348;BME280;6743;49.934;9.138;2024-03-02T09:02:47;99348.50;;;5.67;100.00
13348;BME280;6743;49.934;9.138;2024-03-02T09:05:13;99362.72;;;5.82;100.00
13348;BME280;6743;49.934;9.138;2024-03-02T09:07:40;99362.81;;;5.90;100.00
13348;BME280;6743;49.934;9.138;2024-03-02T09:10:07;99357.44;;;6.00;100.00
13348;BME280;6743;49.934;9.138;2024-03-02T09:12:34;99349.56;;;6.08;100.00
13348;BME280;6743;49.934;9.138;2024-03-02T09:15:01;99354.53;;;6.19;100.00
13348;BME280;6743;49.934;9.138;2024-03-02T09:17:28;99353.41;;;6.29;100.00
13348;BME280;6743;49.934;9.138;2024-03-02T09:19:54;99350.81;;;6.38;100.00
13348;BME280;6743;49.934;9.138;2024-03-02T09:22:20;99351.81;;;6.45;100.00
13348;BME280;6743;49.934;9.138;2024-03-02T09:24:47;99349.38;;;6.51;100.00
13348;BME280;6743;49.934;9.138;2024-03-02T09:27:13;99348.41;;;6.60;100.00
13348;BME280;6743;49.934;9.138;2024-03-02T09:29:39;99347.47;;;6.69;100.00
13348;BME280;6743;49.934;9.138;2024-03-02T09:32:06;99352.56;;;6.79;100.00
13348;BME280;6743;49.934;9.138;2024-03-02T09:34:32;99349.62;;;6.90;100.00
13348;BME280;6743;49.934;9.138;2024-03-02T09:36:59;99345.16;;;6.99;100.00
13348;BME280;6743;49.934;9.138;2024-03-02T09:39:25;99347.81;;;7.15;100.00
13348;BME280;6743;49.934;9.138;2024-03-02T09:41:52;99344.03;;;7.26;100.00
13348;BME280;6743;49.934;9.138;2024-03-02T09:44:19;99343.19;;;7.33;100.00
13348;BME280;6743;49.934;9.138;2024-03-02T09:46:48;99345.50;;;7.44;100.00
13348;BME280;6743;49.934;9.138;2024-03-02T09:49:14;99345.66;;;7.51;100.00
13348;BME280;6743;49.934;9.138;2024-03-02T09:51:40;99322.06;;;7.49;100.00
13348;BME280;6743;49.934;9.138;2024-03-02T09:54:12;99339.53;;;7.67;100.00
13348;BME280;6743;49.934;9.138;2024-03-02T09:56:38;99333.72;;;7.79;100.00
13348;BME280;6743;49.934;9.138;2024-03-02T09:59:05;99334.34;;;7.89;100.00
13348;BME280;6743;49.934;9.138;2024-03-02T10:01:31;99335.50;;;7.95;100.00
13348;BME280;6743;49.934;9.138;2024-03-02T10:03:59;99340.09;;;8.01;100.00
13348;BME280;6743;49.934;9.138;2024-03-02T10:06:26;99335.28;;;8.05;100.00
13348;BME280;6743;49.934;9.138;2024-03-02T10:08:54;99333.44;;;8.13;100.00
13348;BME280;6743;49.934;9.138;2024-03-02T10:11:27;99326.47;;;8.20;100.00
13348;BME280;6743;49.934;9.138;2024-03-02T10:14:05;99307.00;;;8.13;100.00
13348;BME280;6743;49.934;9.138;2024-03-02T10:16:34;99326.59;;;8.35;100.00
13348;BME280;6743;49.934;9.138;2024-03-02T10:19:15;99313.22;;;8.37;100.00
13348;BME280;6743;49.934;9.138;2024-03-02T10:21:41;99322.03;;;8.52;100.00
13348;BME280;6743;49.934;9.138;2024-03-02T10:24:07;99325.97;;;8.56;100.00
13348;BME280;6743;49.934;9.138;2024-03-02T10:26:33;99317.53;;;8.60;100.00
13348;BME280;6743;49.934;9.138;2024-03-02T10:28:59;99319.47;;;8.66;100.00
13348;BME280;6743;49.934;9.138;2024-03-02T10:31:26;99314.81;;;8.68;100.00
13348;BME280;6743;49.934;9.138;2024-03-02T10:33:54;99312.12;;;8.77;100.00
13348;BME280;6743;49.934;9.138;2024-03-02T10:36:20;99314.91;;;8.83;100.00
13348;BME280;6743;49.934;9.138;2024-03-02T10:38:46;99312.19;;;8.91;100.00
13348;BME280;6743;49.934;9.138;2024-03-02T10:41:16;99304.44;;;8.90;100.00
13348;BME280;6743;49.934;9.138;2024-03-02T10:43:43;99313.41;;;9.03;100.00
13348;BME280;6743;49.934;9.138;2024-03-02T10:46:09;99313.53;;;9.10;100.00
13348;BME280;6743;49.934;9.138;2024-03-02T10:48:39;99310.59;;;9.20;100.00
13348;BME280;6743;49.934;9.138;2024-03-02T10:51:06;99309.09;;;9.25;100.00
13348;BME280;6743;49.934;9.138;2024-03-02T10:53:32;99305.72;;;9.31;100.00
13348;BME280;6743;49.934;9.138;2024-03-02T10:55:59;99304.19;;;9.37;100.00
13348;BME280;6743;49.934;9.138;2024-03-02T10:58:31;99299.47;;;9.47;100.00
13348;BME280;6743;49.934;9.138;2024-03-02T11:00:59;99290.16;;;9.51;100.00
13348;BME280;6743;49.934;9.138;2024-03-02T11:03:29;99283.28;;;9.57;100.00
13348;BME280;6743;49.934;9.138;2024-03-02T11:06:00;99281.75;;;9.62;100.00
13348;BME280;6743;49.934;9.138;2024-03-02T11:08:31;99273.62;;;9.64;100.00
13348;BME280;6743;49.934;9.138;2024-03-02T11:11:06;99284.84;;;9.66;100.00
13348;BME280;6743;49.934;9.138;2024-03-02T11:13:33;99279.66;;;9.72;100.00
13348;BME280;6743;49.934;9.138;2024-03-02T11:16:05;99281.38;;;9.80;100.00
13348;BME280;6743;49.934;9.138;2024-03-02T11:18:32;99265.12;;;9.83;100.00
13348;BME280;6743;49.934;9.138;2024-03-02T11:20:59;99269.56;;;9.97;100.00
13348;BME280;6743;49.934;9.138;2024-03-02T11:23:32;99270.03;;;10.01;100.00
13348;BME280;6743;49.934;9.138;2024-03-02T11:26:16;99271.31;;;10.05;100.00
13348;BME280;6743;49.934;9.138;2024-03-02T11:28:43;99274.69;;;10.13;100.00
13348;BME280;6743;49.934;9.138;2024-03-02T11:31:09;99265.84;;;10.21;100.00
13348;BME280;6743;49.934;9.138;2024-03-02T11:33:35;99259.13;;;10.25;100.00
13348;BME280;6743;49.934;9.138;2024-03-02T11:36:02;99260.50;;;10.36;100.00
13348;BME280;6743;49.934;9.138;2024-03-02T11:38:30;99256.44;;;10.40;100.00
13348;BME280;6743;49.934;9.138;2024-03-02T11:40:57;99256.69;;;10.45;100.00
13348;BME280;6743;49.934;9.138;2024-03-02T11:43:26;99247.56;;;10.47;100.00
13348;BME280;6743;49.934;9.138;2024-03-02T11:45:56;99249.44;;;10.53;100.00
13348;BME280;6743;49.934;9.138;2024-03-02T11:48:24;99250.34;;;10.60;100.00
13348;BME280;6743;49.934;9.138;2024-03-02T11:50:50;99244.66;;;10.63;100.00
13348;BME280;6743;49.934;9.138;2024-03-02T11:53:18;99243.44;;;10.66;100.00
13348;BME280;6743;49.934;9.138;2024-03-02T11:55:45;99235.31;;;10.68;100.00
13348;BME280;6743;49.934;9.138;2024-03-02T11:58:12;99236.19;;;10.75;100.00
13348;BME280;6743;49.934;9.138;2024-03-02T12:00:38;99230.69;;;10.76;100.00
13348;BME280;6743;49.934;9.138;2024-03-02T12:03:08;99231.41;;;10.85;100.00
13348;BME280;6743;49.934;9.138;2024-03-02T12:05:34;99217.97;;;10.93;100.00
13348;BME280;6743;49.934;9.138;2024-03-02T12:08:01;99213.34;;;11.01;100.00
13348;BME280;6743;49.934;9.138;2024-03-02T12:10:29;99218.88;;;11.06;100.00
13348;BME280;6743;49.934;9.138;2024-03-02T12:12:56;99211.78;;;11.14;100.00
13348;BME280;6743;49.934;9.138;2024-03-02T12:15:23;99210.00;;;11.21;100.00
13348;BME280;6743;49.934;9.138;2024-03-02T12:17:53;99214.34;;;11.28;100.00
13348;BME280;6743;49.934;9.138;2024-03-02T12:20:19;99210.53;;;11.37;100.00
13348;BME280;6743;49.934;9.138;2024-03-02T12:22:44;99198.25;;;11.36;100.00
13348;BME280;6743;49.934;9.138;2024-03-02T12:25:11;99198.31;;;11.43;100.00
13348;BME280;6743;49.934;9.138;2024-03-02T12:27:38;99195.44;;;11.44;100.00
13348;BME280;6743;49.934;9.138;2024-03-02T12:30:05;99188.31;;;11.45;100.00
13348;BME280;6743;49.934;9.138;2024-03-02T12:32:33;99182.03;;;11.53;100.00
13348;BME280;6743;49.934;9.138;2024-03-02T12:35:00;99179.78;;;11.56;100.00
13348;BME280;6743;49.934;9.138;2024-03-02T12:37:26;99174.50;;;11.63;100.00
13348;BME280;6743;49.934;9.138;2024-03-02T12:39:53;99160.59;;;11.61;100.00
13348;BME280;6743;49.934;9.138;2024-03-02T12:42:19;99169.44;;;11.68;100.00
13348;BME280;6743;49.934;9.138;2024-03-02T12:44:45;99165.59;;;11.77;100.00
13348;BME280;6743;49.934;9.138;2024-03-02T12:47:12;99161.13;;;11.84;100.00
13348;BME280;6743;49.934;9.138;2024-03-02T12:49:39;99161.75;;;11.93;100.00
13348;BME280;6743;49.934;9.138;2024-03-02T12:52:05;99152.38;;;11.97;100.00
13348;BME280;6743;49.934;9.138;2024-03-02T12:54:32;99160.34;;;12.03;100.00
13348;BME280;6743;49.934;9.138;2024-03-02T12:56:59;99159.78;;;12.08;100.00
13348;BME280;6743;49.934;9.138;2024-03-02T12:59:25;99151.81;;;12.14;100.00
13348;BME280;6743;49.934;9.138;2024-03-02T13:01:53;99152.00;;;12.19;100.00
13348;BME280;6743;49.934;9.138;2024-03-02T13:04:23;99150.19;;;12.20;100.00
13348;BME280;6743;49.934;9.138;2024-03-02T13:06:49;99153.84;;;12.26;100.00
13348;BME280;6743;49.934;9.138;2024-03-02T13:09:16;99142.63;;;12.30;100.00